createdAt,value
2022-11-14T00:05:45.833Z,6.45
2022-11-14T00:11:24.947Z,6.49
2022-11-14T00:17:04.888Z,6.53
2022-11-14T00:22:43.907Z,6.52
2022-11-14T00:28:23.234Z,6.58
2022-11-14T00:34:02.574Z,6.56
2022-11-14T00:39:41.762Z,6.62
2022-11-14T00:45:21.153Z,6.71
2022-11-14T00:51:00.582Z,6.74
2022-11-14T00:56:39.764Z,6.78
2022-11-14T01:02:18.940Z,6.93
2022-11-14T01:07:58.490Z,7.11
2022-11-14T01:13:37.781Z,7.14
2022-11-14T01:19:17.012Z,7.16
2022-11-14T01:24:58.437Z,7.07
2022-11-14T01:30:38.349Z,7.04
2022-11-14T01:36:17.813Z,6.93
2022-11-14T01:41:56.703Z,6.93
2022-11-14T01:47:35.885Z,6.86
2022-11-14T01:53:15.560Z,6.94
2022-11-14T01:58:58.396Z,7.00
2022-11-14T02:04:43.827Z,6.98
2022-11-14T02:10:23.069Z,6.81
2022-11-14T02:16:02.516Z,6.71
2022-11-14T02:21:42.201Z,6.63
2022-11-14T02:27:21.538Z,6.58
2022-11-14T02:33:16.319Z,6.51
2022-11-14T02:38:55.533Z,6.55
2022-11-14T02:44:34.918Z,6.53
2022-11-14T02:50:14.214Z,6.54
2022-11-14T02:55:53.393Z,6.50
2022-11-14T03:01:32.790Z,6.44
2022-11-14T03:07:12.679Z,6.47
2022-11-14T03:12:55.943Z,6.47
2022-11-14T03:18:35.590Z,6.50
2022-11-14T03:24:14.945Z,6.51
2022-11-14T03:29:54.514Z,6.56
2022-11-14T03:35:33.555Z,6.52
2022-11-14T03:41:12.651Z,6.54
2022-11-14T03:46:52.565Z,6.46
2022-11-14T03:52:31.665Z,6.45
2022-11-14T03:58:10.936Z,6.48
2022-11-14T04:03:50.332Z,6.46
2022-11-14T04:09:29.635Z,6.45
2022-11-14T04:15:09.424Z,6.42
2022-11-14T04:20:48.725Z,6.35
2022-11-14T04:26:28.120Z,6.26
2022-11-14T04:32:07.656Z,6.19
2022-11-14T04:37:46.787Z,6.10
2022-11-14T04:43:25.883Z,6.02
2022-11-14T04:49:05.176Z,5.97
2022-11-14T04:54:45.583Z,5.98
2022-11-14T05:00:25.218Z,6.03
2022-11-14T05:06:04.614Z,5.95
2022-11-14T05:11:44.117Z,5.86
2022-11-14T05:17:23.665Z,5.81
2022-11-14T05:23:02.718Z,5.82
2022-11-14T05:28:42.083Z,5.85
2022-11-14T05:34:21.171Z,5.86
2022-11-14T05:40:00.781Z,5.90
2022-11-14T05:45:40.094Z,5.95
2022-11-14T05:51:19.571Z,5.93
2022-11-14T05:56:58.972Z,5.91
2022-11-14T06:02:38.049Z,5.98
2022-11-14T06:08:17.305Z,6.02
2022-11-14T06:13:56.624Z,6.08
2022-11-14T06:19:35.951Z,6.17
2022-11-14T06:25:15.158Z,6.31
2022-11-14T06:30:58.906Z,6.49
2022-11-14T06:36:38.419Z,6.54
2022-11-14T06:42:18.027Z,6.83
2022-11-14T06:48:00.568Z,6.88
2022-11-14T06:53:40.413Z,6.74
2022-11-14T06:59:19.807Z,6.37
2022-11-14T07:04:59.144Z,6.49
2022-11-14T07:10:38.487Z,6.57
2022-11-14T07:16:17.917Z,6.78
2022-11-14T07:21:57.313Z,6.95
2022-11-14T07:27:36.590Z,7.06
2022-11-14T07:33:15.777Z,7.10
2022-11-14T07:38:54.940Z,7.18
2022-11-14T07:44:34.190Z,7.32
2022-11-14T07:50:17.671Z,7.55
2022-11-14T07:56:04.540Z,7.67
2022-11-14T08:01:44.122Z,7.65
2022-11-14T08:07:23.289Z,7.61
2022-11-14T08:13:30.146Z,7.65
2022-11-14T08:19:03.870Z,7.75
2022-11-14T08:24:43.162Z,7.74
2022-11-14T08:30:22.401Z,7.74
2022-11-14T08:36:05.650Z,7.75
2022-11-14T08:41:44.809Z,7.85
2022-11-14T08:47:24.193Z,7.80
2022-11-14T08:53:03.540Z,7.81
2022-11-14T08:58:42.684Z,7.91
2022-11-14T09:04:22.152Z,7.97
2022-11-14T09:10:01.849Z,8.09
2022-11-14T09:15:41.885Z,8.32
2022-11-14T09:21:21.375Z,8.48
2022-11-14T09:27:00.554Z,8.60
2022-11-14T09:32:39.938Z,8.62
2022-11-14T09:38:19.295Z,8.72
2022-11-14T09:44:20.547Z,8.83
2022-11-14T09:50:11.528Z,8.91
2022-11-14T09:55:52.097Z,9.07
2022-11-14T10:01:41.015Z,9.08
2022-11-14T10:07:20.827Z,9.19
2022-11-14T10:13:11.159Z,9.35
2022-11-14T10:18:50.619Z,9.41
2022-11-14T10:24:29.654Z,9.55
2022-11-14T10:30:11.718Z,9.67
2022-11-14T10:36:06.539Z,9.84
2022-11-14T10:41:58.016Z,9.98
2022-11-14T10:47:41.282Z,10.07
2022-11-14T10:53:39.303Z,10.12
2022-11-14T10:59:19.336Z,10.12
2022-11-14T11:05:11.815Z,10.19
2022-11-14T11:11:15.526Z,10.35
2022-11-14T11:17:14.877Z,10.51
2022-11-14T11:23:09.510Z,10.57
2022-11-14T11:29:02.371Z,10.64
2022-11-14T11:34:41.911Z,10.73
2022-11-14T11:40:23.864Z,10.82
2022-11-14T11:46:05.098Z,10.82
2022-11-14T11:51:45.557Z,10.88
2022-11-14T11:57:29.725Z,11.08
2022-11-14T12:03:13.399Z,11.15
2022-11-14T12:08:53.007Z,11.08
2022-11-14T12:14:49.248Z,11.15
2022-11-14T12:20:47.214Z,11.12
2022-11-14T12:26:45.226Z,11.07
2022-11-14T12:32:44.538Z,10.97
2022-11-14T12:38:24.071Z,10.96
2022-11-14T12:44:22.533Z,10.80
2022-11-14T12:50:02.671Z,10.80
2022-11-14T12:55:41.995Z,10.82
2022-11-14T13:01:28.453Z,10.81
2022-11-14T13:07:32.809Z,10.81
2022-11-14T13:13:33.556Z,10.82
2022-11-14T13:19:37.645Z,10.79
2022-11-14T13:25:18.828Z,10.80
2022-11-14T13:31:18.866Z,10.82
2022-11-14T13:36:58.077Z,10.84
2022-11-14T13:42:49.621Z,10.84
2022-11-14T13:48:38.005Z,10.86
2022-11-14T13:54:18.493Z,10.81
2022-11-14T14:00:18.411Z,10.86
2022-11-14T14:06:20.260Z,10.87
2022-11-14T14:12:19.781Z,10.80
2022-11-14T14:18:12.547Z,10.76
2022-11-14T14:24:01.015Z,10.67
2022-11-14T14:29:43.329Z,10.55
2022-11-14T14:35:27.369Z,10.49
2022-11-14T14:41:06.985Z,10.45
2022-11-14T14:46:46.192Z,10.31
2022-11-14T14:52:33.129Z,10.19
2022-11-14T14:58:30.739Z,10.01
2022-11-14T15:04:13.549Z,9.76
2022-11-14T15:09:54.159Z,9.58
2022-11-14T15:15:33.941Z,9.44
2022-11-14T15:21:16.668Z,9.33
2022-11-14T15:26:56.114Z,9.24
2022-11-14T15:32:35.638Z,9.13
2022-11-14T15:38:42.629Z,9.05
2022-11-14T15:44:35.000Z,9.00
2022-11-14T15:50:14.250Z,8.92
2022-11-14T15:55:53.571Z,8.88
2022-11-14T16:01:33.114Z,9.35
2022-11-14T16:07:13.808Z,9.40
2022-11-14T16:12:54.223Z,9.25
2022-11-14T16:18:33.649Z,9.12
2022-11-14T16:24:17.720Z,9.11
2022-11-14T16:29:57.199Z,8.99
2022-11-14T16:35:36.803Z,8.91
2022-11-14T16:41:17.422Z,8.75
2022-11-14T16:46:56.849Z,8.75
2022-11-14T16:52:37.367Z,8.84
2022-11-14T16:58:16.941Z,8.78
2022-11-14T17:04:02.633Z,8.66
2022-11-14T17:09:41.953Z,8.55
2022-11-14T17:15:21.562Z,8.50
2022-11-14T17:21:04.045Z,8.30
2022-11-14T17:26:43.333Z,8.15
2022-11-14T17:32:22.602Z,8.18
2022-11-14T17:38:02.304Z,8.21
2022-11-14T17:43:42.160Z,8.12
2022-11-14T17:49:21.921Z,8.31
2022-11-14T17:55:01.112Z,8.45
2022-11-14T18:00:40.841Z,8.61
2022-11-14T18:06:20.774Z,8.63
2022-11-14T18:11:59.818Z,8.58
2022-11-14T18:17:39.341Z,8.48
2022-11-14T18:23:18.820Z,8.20
2022-11-14T18:28:58.889Z,8.36
2022-11-14T18:34:38.611Z,8.53
2022-11-14T18:40:18.104Z,8.44
2022-11-14T18:46:08.155Z,8.37
2022-11-14T18:51:49.141Z,8.33
2022-11-14T18:57:28.782Z,8.26
2022-11-14T19:03:08.959Z,8.11
2022-11-14T19:08:48.849Z,8.21
2022-11-14T19:14:28.552Z,8.13
2022-11-14T19:20:13.952Z,8.21
2022-11-14T19:25:58.581Z,8.30
2022-11-14T19:31:37.823Z,8.33
2022-11-14T19:37:17.350Z,8.29
2022-11-14T19:43:00.369Z,8.21
2022-11-14T19:48:42.650Z,8.37
2022-11-14T19:54:23.244Z,8.21
2022-11-14T20:00:03.532Z,8.02
2022-11-14T20:05:43.071Z,7.89
2022-11-14T20:11:23.024Z,7.99
2022-11-14T20:17:02.488Z,8.11
2022-11-14T20:22:41.665Z,8.11
2022-11-14T20:28:21.286Z,8.02
2022-11-14T20:34:00.828Z,8.05
2022-11-14T20:39:40.087Z,7.89
2022-11-14T20:45:19.726Z,7.82
2022-11-14T20:51:08.592Z,7.43
2022-11-14T20:56:47.931Z,7.47
2022-11-14T21:02:27.652Z,7.39
2022-11-14T21:08:07.654Z,7.17
2022-11-14T21:13:59.166Z,7.10
2022-11-14T21:19:39.027Z,7.02
2022-11-14T21:25:30.528Z,7.04
2022-11-14T21:31:31.667Z,7.05
2022-11-14T21:37:11.243Z,7.17
2022-11-14T21:42:50.933Z,7.03
2022-11-14T21:48:38.827Z,6.80
2022-11-14T21:54:23.603Z,6.70
2022-11-14T22:00:03.170Z,6.59
2022-11-14T22:05:42.586Z,6.89
2022-11-14T22:11:22.329Z,7.07
2022-11-14T22:17:01.429Z,6.66
2022-11-14T22:22:54.850Z,6.51
2022-11-14T22:28:34.546Z,6.39
2022-11-14T22:34:13.681Z,6.46
2022-11-14T22:39:53.244Z,6.34
2022-11-14T22:45:38.764Z,6.17
2022-11-14T22:51:25.864Z,6.12
2022-11-14T22:57:05.255Z,6.02
2022-11-14T23:03:03.698Z,5.98
2022-11-14T23:09:00.341Z,5.95
2022-11-14T23:14:39.515Z,5.77
2022-11-14T23:20:18.662Z,5.75
2022-11-14T23:26:02.255Z,5.87
2022-11-14T23:31:41.549Z,5.85
2022-11-14T23:37:20.900Z,5.83
2022-11-14T23:43:00.358Z,5.84
2022-11-14T23:48:40.053Z,5.78
2022-11-14T23:54:19.708Z,5.70
2022-11-14T23:59:59.381Z,5.70
